首页
METAR-TAF:

METAR-TAF

机场 :

圣卡洛斯-德巴里洛切, 阿根廷

纬度: 41-09S, 经度: 071-10W, 海拔: 845米

当前天气观测

该预报发布于1小时和9分钟前的17:00 UTC
风速23节,风向西转西北,有时为39节阵风
温度 9°C
湿度 57%
气压 1018 hPa
能见度10公里或以上
散云层高于4500英尺
散云层高于15000英尺

METAR: SAZS 241700Z 30023G39KT 9999 SCT045 SCT150 09/01 Q1018

时间: 15:09 (18:09 UTC)

预报

该预报发布于1小时和9分钟前的17:00 UTC
预报有效从24日的 18点(UTC)到 25日的 18点(UTC)
风速20节,风向西转西北,有时为30节阵风
能见度10公里或以上
散云层高于3500英尺
短暂存在
从 24日的 18点(UTC)到 24日的 21点(UTC)
风速25节,风向西转西北,有时为40节阵风
成为
从 24日的 22点(UTC)到 24日的 24点(UTC)
能見度: 8000
散云层高于1000英尺
阴天层高于2000英尺
短暂存在
从 25日的 03点(UTC)到 25日的 09点(UTC)
能見度: 4000
阴天层高于1000英尺
几率 40%
从 25日的 09点(UTC)到 25日的 11点(UTC)
能見度: 3000
多云层高于800英尺
阴天层高于2000英尺
成为
从 25日的 13点(UTC)到 25日的 15点(UTC)
风速10节,风向西
能见度10公里或以上
散云层高于1500英尺

TAF: SAZS 241700Z 2418/2518 29020G30KT 9999 SCT035 TX10/2419Z TN01/2511Z TEMPO 2418/2421 29025G40KT BECMG 2422/2424 8000 RA SCT010 OVC020 TEMPO 2503/2509 4000 RA OVC010 PROB40 2509/2511 3000 SN BKN008 OVC020 BECMG 2513/2515 28010KT 9999 SCT015

超过4000个机场的气象观测和天气预报(METAR&TAF报告)。

可查询的气象台以黄色和红色小点在地图上表示。

将鼠标移到小点上方,可查看气象台名称。

然后点击查看天气观测和预报。

如需切换地图:点击带黑十字的绿色按钮放大地图;点击带横线的绿色按钮缩小地图;或者点击绿色箭头查看邻近地区的地图。


METAR-TAF: